sensor_id;sensor_type;location;lat;lon;timestamp;P1;durP1;ratioP1;P2;durP2;ratioP2
53801;SDS011;39709;53.334;6.534;2023-02-15T00:01:10;96.17;;;25.43;;
53801;SDS011;39709;53.334;6.534;2023-02-15T00:03:36;91.13;;;25.58;;
53801;SDS011;39709;53.334;6.534;2023-02-15T00:06:02;88.57;;;24.08;;
53801;SDS011;39709;53.334;6.534;2023-02-15T00:08:29;92.00;;;24.33;;
53801;SDS011;39709;53.334;6.534;2023-02-15T00:11:08;106.55;;;25.48;;
53801;SDS011;39709;53.334;6.534;2023-02-15T00:13:35;99.65;;;26.42;;
53801;SDS011;39709;53.334;6.534;2023-02-15T00:16:05;128.75;;;27.30;;
53801;SDS011;39709;53.334;6.534;2023-02-15T00:18:32;120.95;;;25.48;;
53801;SDS011;39709;53.334;6.534;2023-02-15T00:20:58;151.30;;;26.93;;
53801;SDS011;39709;53.334;6.534;2023-02-15T00:23:28;115.60;;;24.17;;
53801;SDS011;39709;53.334;6.534;2023-02-15T00:26:10;85.30;;;23.48;;
53801;SDS011;39709;53.334;6.534;2023-02-15T00:28:36;69.00;;;23.37;;
53801;SDS011;39709;53.334;6.534;2023-02-15T00:31:06;59.40;;;21.88;;
53801;SDS011;39709;53.334;6.534;2023-02-15T00:33:34;86.90;;;24.40;;
53801;SDS011;39709;53.334;6.534;2023-02-15T00:36:00;103.07;;;23.35;;
53801;SDS011;39709;53.334;6.534;2023-02-15T00:38:26;110.72;;;25.77;;
53801;SDS011;39709;53.334;6.534;2023-02-15T00:40:56;108.70;;;26.37;;
53801;SDS011;39709;53.334;6.534;2023-02-15T00:43:23;94.93;;;26.13;;
53801;SDS011;39709;53.334;6.534;2023-02-15T00:45:50;59.88;;;26.50;;
53801;SDS011;39709;53.334;6.534;2023-02-15T00:48:16;80.53;;;25.38;;
53801;SDS011;39709;53.334;6.534;2023-02-15T00:50:41;118.70;;;27.43;;
53801;SDS011;39709;53.334;6.534;2023-02-15T00:53:10;88.97;;;26.58;;
53801;SDS011;39709;53.334;6.534;2023-02-15T00:55:36;62.70;;;26.48;;
53801;SDS011;39709;53.334;6.534;2023-02-15T00:58:02;96.10;;;26.70;;
53801;SDS011;39709;53.334;6.534;2023-02-15T01:00:27;107.70;;;28.45;;
53801;SDS011;39709;53.334;6.534;2023-02-15T01:02:53;74.33;;;25.53;;
53801;SDS011;39709;53.334;6.534;2023-02-15T01:05:19;68.50;;;27.38;;
53801;SDS011;39709;53.334;6.534;2023-02-15T01:07:44;52.93;;;24.90;;
53801;SDS011;39709;53.334;6.534;2023-02-15T01:10:10;59.17;;;24.67;;
53801;SDS011;39709;53.334;6.534;2023-02-15T01:12:36;80.57;;;24.40;;
53801;SDS011;39709;53.334;6.534;2023-02-15T01:15:02;70.40;;;24.03;;
53801;SDS011;39709;53.334;6.534;2023-02-15T01:17:27;80.90;;;24.03;;
53801;SDS011;39709;53.334;6.534;2023-02-15T01:19:53;61.67;;;23.83;;
53801;SDS011;39709;53.334;6.534;2023-02-15T01:22:19;60.83;;;25.43;;
53801;SDS011;39709;53.334;6.534;2023-02-15T01:24:45;94.80;;;23.45;;
53801;SDS011;39709;53.334;6.534;2023-02-15T01:27:10;148.77;;;24.30;;
53801;SDS011;39709;53.334;6.534;2023-02-15T01:29:36;104.10;;;23.57;;
53801;SDS011;39709;53.334;6.534;2023-02-15T01:32:02;99.43;;;23.83;;
53801;SDS011;39709;53.334;6.534;2023-02-15T01:34:28;117.88;;;25.30;;
53801;SDS011;39709;53.334;6.534;2023-02-15T01:36:54;105.90;;;25.50;;
53801;SDS011;39709;53.334;6.534;2023-02-15T01:39:20;150.02;;;31.13;;
53801;SDS011;39709;53.334;6.534;2023-02-15T01:41:46;104.67;;;27.97;;
53801;SDS011;39709;53.334;6.534;2023-02-15T01:49:58;103.77;;;28.83;;
53801;SDS011;39709;53.334;6.534;2023-02-15T01:52:47;138.63;;;30.45;;
53801;SDS011;39709;53.334;6.534;2023-02-15T01:55:38;99.65;;;28.27;;
53801;SDS011;39709;53.334;6.534;2023-02-15T01:58:07;74.32;;;28.38;;
53801;SDS011;39709;53.334;6.534;2023-02-15T02:00:33;83.10;;;27.73;;
53801;SDS011;39709;53.334;6.534;2023-02-15T02:03:00;77.53;;;26.40;;
53801;SDS011;39709;53.334;6.534;2023-02-15T02:05:26;86.07;;;25.10;;
53801;SDS011;39709;53.334;6.534;2023-02-15T02:07:55;52.25;;;22.95;;
53801;SDS011;39709;53.334;6.534;2023-02-15T02:10:23;92.63;;;23.77;;
53801;SDS011;39709;53.334;6.534;2023-02-15T02:12:52;56.95;;;21.70;;
53801;SDS011;39709;53.334;6.534;2023-02-15T02:20:51;76.65;;;22.10;;
53801;SDS011;39709;53.334;6.534;2023-02-15T02:26:11;73.40;;;21.00;;
53801;SDS011;39709;53.334;6.534;2023-02-15T02:29:18;63.07;;;22.10;;
53801;SDS011;39709;53.334;6.534;2023-02-15T02:31:58;92.05;;;23.25;;
53801;SDS011;39709;53.334;6.534;2023-02-15T02:34:55;90.95;;;22.55;;
53801;SDS011;39709;53.334;6.534;2023-02-15T02:42:59;90.95;;;22.48;;
53801;SDS011;39709;53.334;6.534;2023-02-15T02:45:32;72.13;;;21.42;;
53801;SDS011;39709;53.334;6.534;2023-02-15T02:48:08;64.78;;;22.00;;
53801;SDS011;39709;53.334;6.534;2023-02-15T02:50:38;63.33;;;22.23;;
53801;SDS011;39709;53.334;6.534;2023-02-15T02:53:05;79.45;;;22.90;;
53801;SDS011;39709;53.334;6.534;2023-02-15T02:58:20;76.25;;;23.52;;
53801;SDS011;39709;53.334;6.534;2023-02-15T03:01:03;77.17;;;22.97;;
53801;SDS011;39709;53.334;6.534;2023-02-15T03:03:42;80.07;;;24.70;;
53801;SDS011;39709;53.334;6.534;2023-02-15T03:06:19;89.10;;;23.35;;
53801;SDS011;39709;53.334;6.534;2023-02-15T03:08:50;109.78;;;23.67;;
53801;SDS011;39709;53.334;6.534;2023-02-15T03:11:46;87.75;;;23.52;;
53801;SDS011;39709;53.334;6.534;2023-02-15T03:14:14;63.23;;;22.07;;
53801;SDS011;39709;53.334;6.534;2023-02-15T03:16:42;74.53;;;21.55;;
53801;SDS011;39709;53.334;6.534;2023-02-15T03:19:16;66.65;;;21.23;;
53801;SDS011;39709;53.334;6.534;2023-02-15T03:21:51;78.32;;;22.33;;
53801;SDS011;39709;53.334;6.534;2023-02-15T03:24:39;72.47;;;21.77;;
53801;SDS011;39709;53.334;6.534;2023-02-15T03:27:14;73.67;;;21.97;;
53801;SDS011;39709;53.334;6.534;2023-02-15T03:29:43;93.63;;;21.85;;
53801;SDS011;39709;53.334;6.534;2023-02-15T03:32:15;72.72;;;21.55;;
53801;SDS011;39709;53.334;6.534;2023-02-15T03:34:42;72.18;;;23.00;;
53801;SDS011;39709;53.334;6.534;2023-02-15T03:45:03;93.72;;;26.65;;
53801;SDS011;39709;53.334;6.534;2023-02-15T03:47:34;88.38;;;25.58;;
53801;SDS011;39709;53.334;6.534;2023-02-15T03:53:01;117.03;;;26.43;;
53801;SDS011;39709;53.334;6.534;2023-02-15T03:55:30;135.00;;;26.92;;
53801;SDS011;39709;53.334;6.534;2023-02-15T03:57:56;141.38;;;28.92;;
53801;SDS011;39709;53.334;6.534;2023-02-15T04:00:40;85.00;;;27.40;;
53801;SDS011;39709;53.334;6.534;2023-02-15T04:03:42;86.80;;;25.00;;
53801;SDS011;39709;53.334;6.534;2023-02-15T04:06:19;89.10;;;27.88;;
53801;SDS011;39709;53.334;6.534;2023-02-15T04:08:45;97.45;;;28.17;;
53801;SDS011;39709;53.334;6.534;2023-02-15T04:11:29;111.38;;;28.58;;
53801;SDS011;39709;53.334;6.534;2023-02-15T04:13:55;110.17;;;28.50;;
53801;SDS011;39709;53.334;6.534;2023-02-15T04:16:24;89.45;;;28.25;;
53801;SDS011;39709;53.334;6.534;2023-02-15T04:18:50;116.50;;;30.23;;
53801;SDS011;39709;53.334;6.534;2023-02-15T04:21:34;146.40;;;31.75;;
53801;SDS011;39709;53.334;6.534;2023-02-15T04:24:19;118.05;;;27.73;;
53801;SDS011;39709;53.334;6.534;2023-02-15T04:27:04;81.63;;;29.63;;
53801;SDS011;39709;53.334;6.534;2023-02-15T04:29:30;100.45;;;28.23;;
53801;SDS011;39709;53.334;6.534;2023-02-15T04:31:57;92.53;;;28.30;;
53801;SDS011;39709;53.334;6.534;2023-02-15T04:34:24;101.50;;;29.75;;
53801;SDS011;39709;53.334;6.534;2023-02-15T04:36:49;92.50;;;28.20;;
53801;SDS011;39709;53.334;6.534;2023-02-15T04:39:15;91.72;;;27.98;;
53801;SDS011;39709;53.334;6.534;2023-02-15T04:41:43;131.93;;;32.30;;
53801;SDS011;39709;53.334;6.534;2023-02-15T04:44:09;95.10;;;31.53;;
53801;SDS011;39709;53.334;6.534;2023-02-15T04:46:35;105.40;;;30.40;;
53801;SDS011;39709;53.334;6.534;2023-02-15T04:49:01;116.40;;;31.10;;
53801;SDS011;39709;53.334;6.534;2023-02-15T04:51:27;91.38;;;31.95;;
53801;SDS011;39709;53.334;6.534;2023-02-15T04:53:53;113.30;;;30.00;;
53801;SDS011;39709;53.334;6.534;2023-02-15T04:56:20;81.22;;;30.77;;
53801;SDS011;39709;53.334;6.534;2023-02-15T04:58:46;91.70;;;30.40;;
53801;SDS011;39709;53.334;6.534;2023-02-15T05:01:12;96.17;;;31.30;;
53801;SDS011;39709;53.334;6.534;2023-02-15T05:03:38;105.85;;;32.60;;
53801;SDS011;39709;53.334;6.534;2023-02-15T05:06:04;112.05;;;31.10;;
53801;SDS011;39709;53.334;6.534;2023-02-15T05:08:30;85.70;;;32.10;;
53801;SDS011;39709;53.334;6.534;2023-02-15T05:10:56;112.82;;;33.13;;
53801;SDS011;39709;53.334;6.534;2023-02-15T05:13:22;95.03;;;32.60;;
53801;SDS011;39709;53.334;6.534;2023-02-15T05:15:49;120.88;;;33.22;;
53801;SDS011;39709;53.334;6.534;2023-02-15T05:18:19;109.20;;;33.17;;
53801;SDS011;39709;53.334;6.534;2023-02-15T05:20:46;145.57;;;33.53;;
53801;SDS011;39709;53.334;6.534;2023-02-15T05:23:12;92.63;;;32.30;;
53801;SDS011;39709;53.334;6.534;2023-02-15T05:25:38;109.57;;;33.60;;
53801;SDS011;39709;53.334;6.534;2023-02-15T05:28:23;113.70;;;32.63;;
53801;SDS011;39709;53.334;6.534;2023-02-15T05:31:13;95.53;;;32.90;;
53801;SDS011;39709;53.334;6.534;2023-02-15T05:33:37;120.20;;;32.80;;
53801;SDS011;39709;53.334;6.534;2023-02-15T05:36:04;93.63;;;32.58;;
53801;SDS011;39709;53.334;6.534;2023-02-15T05:38:30;81.13;;;31.73;;
53801;SDS011;39709;53.334;6.534;2023-02-15T05:40:56;70.82;;;31.08;;
53801;SDS011;39709;53.334;6.534;2023-02-15T05:43:22;61.50;;;29.33;;
53801;SDS011;39709;53.334;6.534;2023-02-15T05:45:49;63.15;;;30.15;;
53801;SDS011;39709;53.334;6.534;2023-02-15T05:48:16;91.18;;;31.50;;
53801;SDS011;39709;53.334;6.534;2023-02-15T05:50:43;113.70;;;31.90;;
53801;SDS011;39709;53.334;6.534;2023-02-15T05:53:09;113.82;;;33.58;;
53801;SDS011;39709;53.334;6.534;2023-02-15T05:55:38;100.15;;;32.90;;
53801;SDS011;39709;53.334;6.534;2023-02-15T05:58:04;95.50;;;33.50;;
53801;SDS011;39709;53.334;6.534;2023-02-15T06:00:30;71.00;;;31.88;;
53801;SDS011;39709;53.334;6.534;2023-02-15T06:02:56;103.60;;;33.17;;
53801;SDS011;39709;53.334;6.534;2023-02-15T06:05:22;144.82;;;34.80;;
53801;SDS011;39709;53.334;6.534;2023-02-15T06:07:47;165.33;;;36.47;;
53801;SDS011;39709;53.334;6.534;2023-02-15T06:10:13;187.95;;;36.35;;
53801;SDS011;39709;53.334;6.534;2023-02-15T06:12:39;188.90;;;38.47;;
53801;SDS011;39709;53.334;6.534;2023-02-15T06:15:05;159.20;;;37.63;;
53801;SDS011;39709;53.334;6.534;2023-02-15T06:17:31;193.25;;;37.33;;
53801;SDS011;39709;53.334;6.534;2023-02-15T06:19:57;132.07;;;37.00;;
53801;SDS011;39709;53.334;6.534;2023-02-15T06:22:23;200.77;;;38.93;;
53801;SDS011;39709;53.334;6.534;2023-02-15T06:24:49;140.23;;;37.93;;
53801;SDS011;39709;53.334;6.534;2023-02-15T06:27:14;101.57;;;36.95;;
53801;SDS011;39709;53.334;6.534;2023-02-15T06:29:40;88.82;;;36.53;;
53801;SDS011;39709;53.334;6.534;2023-02-15T06:32:06;97.43;;;36.17;;
53801;SDS011;39709;53.334;6.534;2023-02-15T06:34:32;83.20;;;35.63;;
53801;SDS011;39709;53.334;6.534;2023-02-15T06:36:57;86.83;;;35.47;;
53801;SDS011;39709;53.334;6.534;2023-02-15T06:39:23;71.05;;;33.65;;
53801;SDS011;39709;53.334;6.534;2023-02-15T06:41:49;69.50;;;33.83;;
53801;SDS011;39709;53.334;6.534;2023-02-15T06:44:15;72.13;;;33.72;;
53801;SDS011;39709;53.334;6.534;2023-02-15T06:46:40;65.67;;;33.00;;
53801;SDS011;39709;53.334;6.534;2023-02-15T06:49:06;69.57;;;33.73;;
53801;SDS011;39709;53.334;6.534;2023-02-15T06:51:31;70.28;;;32.83;;
53801;SDS011;39709;53.334;6.534;2023-02-15T06:53:59;69.90;;;34.22;;
53801;SDS011;39709;53.334;6.534;2023-02-15T06:56:24;71.43;;;35.20;;
53801;SDS011;39709;53.334;6.534;2023-02-15T06:58:50;72.68;;;34.15;;
53801;SDS011;39709;53.334;6.534;2023-02-15T07:01:17;71.60;;;33.70;;
53801;SDS011;39709;53.334;6.534;2023-02-15T07:03:43;82.30;;;32.85;;
53801;SDS011;39709;53.334;6.534;2023-02-15T07:06:09;76.80;;;35.03;;
53801;SDS011;39709;53.334;6.534;2023-02-15T07:08:36;75.05;;;34.05;;
53801;SDS011;39709;53.334;6.534;2023-02-15T07:11:03;66.63;;;32.88;;
53801;SDS011;39709;53.334;6.534;2023-02-15T07:13:48;74.82;;;34.15;;
53801;SDS011;39709;53.334;6.534;2023-02-15T07:16:14;66.60;;;32.40;;
53801;SDS011;39709;53.334;6.534;2023-02-15T07:18:40;70.80;;;33.40;;
53801;SDS011;39709;53.334;6.534;2023-02-15T07:21:06;68.13;;;32.73;;
53801;SDS011;39709;53.334;6.534;2023-02-15T07:23:38;63.50;;;32.23;;
53801;SDS011;39709;53.334;6.534;2023-02-15T07:26:04;61.60;;;31.40;;
53801;SDS011;39709;53.334;6.534;2023-02-15T07:28:31;63.40;;;32.50;;
53801;SDS011;39709;53.334;6.534;2023-02-15T07:31:01;59.15;;;31.05;;
53801;SDS011;39709;53.334;6.534;2023-02-15T07:33:29;59.95;;;31.02;;
53801;SDS011;39709;53.334;6.534;2023-02-15T07:35:57;60.03;;;31.00;;
53801;SDS011;39709;53.334;6.534;2023-02-15T07:38:24;57.80;;;31.05;;
53801;SDS011;39709;53.334;6.534;2023-02-15T07:40:51;65.00;;;33.05;;
53801;SDS011;39709;53.334;6.534;2023-02-15T07:43:17;67.93;;;33.45;;
53801;SDS011;39709;53.334;6.534;2023-02-15T07:45:42;79.20;;;33.37;;
53801;SDS011;39709;53.334;6.534;2023-02-15T07:48:08;76.13;;;34.40;;
53801;SDS011;39709;53.334;6.534;2023-02-15T07:50:34;80.03;;;35.60;;
53801;SDS011;39709;53.334;6.534;2023-02-15T07:53:03;74.78;;;35.05;;
53801;SDS011;39709;53.334;6.534;2023-02-15T07:55:29;74.68;;;34.13;;
53801;SDS011;39709;53.334;6.534;2023-02-15T07:57:55;76.47;;;36.15;;
53801;SDS011;39709;53.334;6.534;2023-02-15T08:00:21;88.00;;;36.87;;
53801;SDS011;39709;53.334;6.534;2023-02-15T08:02:50;94.22;;;38.03;;
53801;SDS011;39709;53.334;6.534;2023-02-15T08:05:42;95.82;;;40.30;;
53801;SDS011;39709;53.334;6.534;2023-02-15T08:08:10;105.25;;;40.22;;
53801;SDS011;39709;53.334;6.534;2023-02-15T08:10:58;107.17;;;41.97;;
53801;SDS011;39709;53.334;6.534;2023-02-15T08:19:03;127.45;;;44.55;;
53801;SDS011;39709;53.334;6.534;2023-02-15T08:21:31;117.63;;;44.67;;
53801;SDS011;39709;53.334;6.534;2023-02-15T08:23:58;116.60;;;45.90;;
53801;SDS011;39709;53.334;6.534;2023-02-15T08:26:24;126.10;;;45.72;;
53801;SDS011;39709;53.334;6.534;2023-02-15T08:28:52;126.65;;;46.28;;
53801;SDS011;39709;53.334;6.534;2023-02-15T08:31:17;137.43;;;47.37;;
53801;SDS011;39709;53.334;6.534;2023-02-15T08:33:45;136.18;;;47.90;;
53801;SDS011;39709;53.334;6.534;2023-02-15T08:36:13;131.55;;;47.55;;
53801;SDS011;39709;53.334;6.534;2023-02-15T08:38:44;122.63;;;44.97;;
53801;SDS011;39709;53.334;6.534;2023-02-15T08:43:47;122.20;;;46.30;;
53801;SDS011;39709;53.334;6.534;2023-02-15T08:46:19;122.65;;;45.42;;
53801;SDS011;39709;53.334;6.534;2023-02-15T08:48:45;116.32;;;47.70;;
53801;SDS011;39709;53.334;6.534;2023-02-15T08:51:12;125.07;;;46.75;;
53801;SDS011;39709;53.334;6.534;2023-02-15T08:53:44;117.72;;;46.17;;
53801;SDS011;39709;53.334;6.534;2023-02-15T08:56:14;123.17;;;45.63;;
53801;SDS011;39709;53.334;6.534;2023-02-15T08:58:40;128.25;;;47.45;;
53801;SDS011;39709;53.334;6.534;2023-02-15T09:01:10;118.57;;;47.38;;
53801;SDS011;39709;53.334;6.534;2023-02-15T09:03:38;130.25;;;47.45;;
53801;SDS011;39709;53.334;6.534;2023-02-15T09:06:04;138.63;;;50.27;;
53801;SDS011;39709;53.334;6.534;2023-02-15T09:08:30;141.50;;;51.97;;
53801;SDS011;39709;53.334;6.534;2023-02-15T09:13:47;129.47;;;48.47;;
53801;SDS011;39709;53.334;6.534;2023-02-15T09:16:14;148.52;;;50.80;;
53801;SDS011;39709;53.334;6.534;2023-02-15T09:18:42;142.35;;;50.40;;
53801;SDS011;39709;53.334;6.534;2023-02-15T09:21:11;141.65;;;49.88;;
53801;SDS011;39709;53.334;6.534;2023-02-15T09:23:39;146.65;;;50.40;;
53801;SDS011;39709;53.334;6.534;2023-02-15T09:26:07;145.33;;;51.97;;
53801;SDS011;39709;53.334;6.534;2023-02-15T09:28:34;150.88;;;52.50;;
53801;SDS011;39709;53.334;6.534;2023-02-15T09:31:19;144.65;;;52.90;;
53801;SDS011;39709;53.334;6.534;2023-02-15T09:33:46;154.48;;;53.15;;
53801;SDS011;39709;53.334;6.534;2023-02-15T09:36:14;159.23;;;53.77;;
53801;SDS011;39709;53.334;6.534;2023-02-15T09:38:44;157.40;;;54.58;;
53801;SDS011;39709;53.334;6.534;2023-02-15T09:55:46;151.13;;;48.78;;
53801;SDS011;39709;53.334;6.534;2023-02-15T10:26:40;112.95;;;41.13;;
53801;SDS011;39709;53.334;6.534;2023-02-15T10:34:20;105.85;;;39.55;;
53801;SDS011;39709;53.334;6.534;2023-02-15T10:45:16;86.15;;;41.72;;
53801;SDS011;39709;53.334;6.534;2023-02-15T10:48:15;84.82;;;37.70;;
53801;SDS011;39709;53.334;6.534;2023-02-15T10:50:51;63.53;;;28.63;;
53801;SDS011;39709;53.334;6.534;2023-02-15T10:56:13;68.18;;;29.27;;
53801;SDS011;39709;53.334;6.534;2023-02-15T10:58:57;50.97;;;23.63;;
53801;SDS011;39709;53.334;6.534;2023-02-15T11:01:48;79.43;;;33.30;;
53801;SDS011;39709;53.334;6.534;2023-02-15T11:04:44;66.68;;;29.20;;
53801;SDS011;39709;53.334;6.534;2023-02-15T11:07:25;16.33;;;6.20;;
53801;SDS011;39709;53.334;6.534;2023-02-15T11:10:01;13.38;;;5.88;;
53801;SDS011;39709;53.334;6.534;2023-02-15T11:12:40;27.07;;;11.77;;
53801;SDS011;39709;53.334;6.534;2023-02-15T11:15:15;42.05;;;20.25;;
53801;SDS011;39709;53.334;6.534;2023-02-15T11:23:43;63.78;;;28.15;;
53801;SDS011;39709;53.334;6.534;2023-02-15T11:26:53;57.00;;;28.07;;
53801;SDS011;39709;53.334;6.534;2023-02-15T11:31:55;34.42;;;15.23;;
53801;SDS011;39709;53.334;6.534;2023-02-15T11:37:15;53.88;;;25.50;;
53801;SDS011;39709;53.334;6.534;2023-02-15T11:39:44;42.53;;;17.17;;
53801;SDS011;39709;53.334;6.534;2023-02-15T11:42:17;20.00;;;8.50;;
53801;SDS011;39709;53.334;6.534;2023-02-15T11:44:58;43.83;;;17.60;;
53801;SDS011;39709;53.334;6.534;2023-02-15T11:48:00;39.58;;;17.80;;
53801;SDS011;39709;53.334;6.534;2023-02-15T11:50:33;69.63;;;33.63;;
53801;SDS011;39709;53.334;6.534;2023-02-15T11:53:00;65.17;;;30.93;;
53801;SDS011;39709;53.334;6.534;2023-02-15T11:55:29;62.63;;;30.50;;
53801;SDS011;39709;53.334;6.534;2023-02-15T12:00:45;62.77;;;30.20;;
53801;SDS011;39709;53.334;6.534;2023-02-15T12:06:18;55.47;;;28.23;;
53801;SDS011;39709;53.334;6.534;2023-02-15T12:11:33;55.47;;;26.25;;
53801;SDS011;39709;53.334;6.534;2023-02-15T12:14:06;43.23;;;18.73;;
53801;SDS011;39709;53.334;6.534;2023-02-15T12:16:40;16.63;;;6.40;;
53801;SDS011;39709;53.334;6.534;2023-02-15T12:19:24;48.90;;;21.65;;
53801;SDS011;39709;53.334;6.534;2023-02-15T12:21:58;53.38;;;23.02;;
53801;SDS011;39709;53.334;6.534;2023-02-15T12:24:27;48.20;;;23.10;;
53801;SDS011;39709;53.334;6.534;2023-02-15T12:26:56;46.17;;;22.53;;
53801;SDS011;39709;53.334;6.534;2023-02-15T12:29:27;21.77;;;9.98;;
53801;SDS011;39709;53.334;6.534;2023-02-15T12:31:55;44.33;;;19.20;;
53801;SDS011;39709;53.334;6.534;2023-02-15T12:34:26;50.35;;;21.77;;
53801;SDS011;39709;53.334;6.534;2023-02-15T12:36:56;42.17;;;19.55;;
53801;SDS011;39709;53.334;6.534;2023-02-15T12:39:31;40.50;;;16.30;;
53801;SDS011;39709;53.334;6.534;2023-02-15T12:41:58;34.47;;;12.57;;
53801;SDS011;39709;53.334;6.534;2023-02-15T12:44:53;9.80;;;3.55;;
53801;SDS011;39709;53.334;6.534;2023-02-15T12:47:20;39.22;;;16.95;;
53801;SDS011;39709;53.334;6.534;2023-02-15T12:50:04;36.67;;;15.43;;
53801;SDS011;39709;53.334;6.534;2023-02-15T12:52:41;44.23;;;19.10;;
53801;SDS011;39709;53.334;6.534;2023-02-15T12:55:10;31.30;;;13.55;;
53801;SDS011;39709;53.334;6.534;2023-02-15T12:57:43;42.88;;;20.45;;
53801;SDS011;39709;53.334;6.534;2023-02-15T13:02:47;36.60;;;16.98;;
53801;SDS011;39709;53.334;6.534;2023-02-15T13:07:46;28.60;;;10.57;;
53801;SDS011;39709;53.334;6.534;2023-02-15T13:10:35;22.35;;;8.32;;
53801;SDS011;39709;53.334;6.534;2023-02-15T13:13:23;36.05;;;16.55;;
53801;SDS011;39709;53.334;6.534;2023-02-15T13:15:52;26.38;;;11.55;;
53801;SDS011;39709;53.334;6.534;2023-02-15T13:18:34;42.87;;;18.47;;
53801;SDS011;39709;53.334;6.534;2023-02-15T13:26:26;43.47;;;18.48;;
53801;SDS011;39709;53.334;6.534;2023-02-15T13:28:58;50.85;;;21.10;;
53801;SDS011;39709;53.334;6.534;2023-02-15T13:31:33;43.57;;;18.87;;
53801;SDS011;39709;53.334;6.534;2023-02-15T13:34:07;36.58;;;15.55;;
53801;SDS011;39709;53.334;6.534;2023-02-15T13:37:12;37.70;;;14.70;;
53801;SDS011;39709;53.334;6.534;2023-02-15T13:57:35;45.72;;;20.58;;
53801;SDS011;39709;53.334;6.534;2023-02-15T14:02:53;41.63;;;18.45;;
53801;SDS011;39709;53.334;6.534;2023-02-15T14:11:13;17.70;;;6.97;;
53801;SDS011;39709;53.334;6.534;2023-02-15T14:16:58;49.47;;;23.23;;
53801;SDS011;39709;53.334;6.534;2023-02-15T14:25:03;32.28;;;14.57;;
53801;SDS011;39709;53.334;6.534;2023-02-15T14:27:45;45.40;;;20.57;;
53801;SDS011;39709;53.334;6.534;2023-02-15T14:30:31;23.17;;;9.45;;
53801;SDS011;39709;53.334;6.534;2023-02-15T14:33:04;40.25;;;17.90;;
53801;SDS011;39709;53.334;6.534;2023-02-15T14:35:47;48.13;;;20.20;;
53801;SDS011;39709;53.334;6.534;2023-02-15T14:38:36;46.05;;;20.80;;
53801;SDS011;39709;53.334;6.534;2023-02-15T14:41:23;48.27;;;22.43;;
53801;SDS011;39709;53.334;6.534;2023-02-15T14:47:07;51.78;;;22.50;;
53801;SDS011;39709;53.334;6.534;2023-02-15T14:49:44;42.50;;;21.55;;
53801;SDS011;39709;53.334;6.534;2023-02-15T14:52:10;43.97;;;22.67;;
53801;SDS011;39709;53.334;6.534;2023-02-15T15:04:44;45.58;;;21.27;;
53801;SDS011;39709;53.334;6.534;2023-02-15T15:09:46;43.38;;;20.73;;
53801;SDS011;39709;53.334;6.534;2023-02-15T15:14:49;33.83;;;14.98;;
53801;SDS011;39709;53.334;6.534;2023-02-15T15:19:57;43.30;;;20.60;;
53801;SDS011;39709;53.334;6.534;2023-02-15T15:22:25;39.95;;;18.95;;
53801;SDS011;39709;53.334;6.534;2023-02-15T15:24:53;42.67;;;20.85;;
53801;SDS011;39709;53.334;6.534;2023-02-15T15:32:44;37.40;;;17.55;;
53801;SDS011;39709;53.334;6.534;2023-02-15T15:49:24;40.75;;;17.70;;
53801;SDS011;39709;53.334;6.534;2023-02-15T15:51:55;24.58;;;11.25;;
53801;SDS011;39709;53.334;6.534;2023-02-15T15:54:24;37.78;;;16.88;;
53801;SDS011;39709;53.334;6.534;2023-02-15T15:56:53;39.70;;;16.77;;
53801;SDS011;39709;53.334;6.534;2023-02-15T15:59:26;38.03;;;19.40;;
53801;SDS011;39709;53.334;6.534;2023-02-15T16:01:54;41.53;;;19.95;;
53801;SDS011;39709;53.334;6.534;2023-02-15T16:04:27;31.23;;;14.85;;
53801;SDS011;39709;53.334;6.534;2023-02-15T16:06:56;40.72;;;19.45;;
53801;SDS011;39709;53.334;6.534;2023-02-15T16:09:23;38.97;;;17.83;;
53801;SDS011;39709;53.334;6.534;2023-02-15T16:11:56;36.42;;;17.85;;
53801;SDS011;39709;53.334;6.534;2023-02-15T16:14:26;45.08;;;20.17;;
53801;SDS011;39709;53.334;6.534;2023-02-15T16:16:57;40.42;;;18.85;;
53801;SDS011;39709;53.334;6.534;2023-02-15T16:19:29;37.97;;;19.63;;
53801;SDS011;39709;53.334;6.534;2023-02-15T16:22:02;39.33;;;18.93;;
53801;SDS011;39709;53.334;6.534;2023-02-15T16:27:04;44.40;;;20.55;;
53801;SDS011;39709;53.334;6.534;2023-02-15T16:29:42;51.45;;;25.92;;
53801;SDS011;39709;53.334;6.534;2023-02-15T16:35:03;43.25;;;20.15;;
53801;SDS011;39709;53.334;6.534;2023-02-15T16:37:38;44.63;;;20.92;;
53801;SDS011;39709;53.334;6.534;2023-02-15T16:40:04;41.60;;;21.70;;
53801;SDS011;39709;53.334;6.534;2023-02-15T16:42:30;46.85;;;22.30;;
53801;SDS011;39709;53.334;6.534;2023-02-15T16:47:29;41.83;;;20.20;;
53801;SDS011;39709;53.334;6.534;2023-02-15T16:49:57;40.53;;;19.65;;
53801;SDS011;39709;53.334;6.534;2023-02-15T16:52:27;40.67;;;20.67;;
53801;SDS011;39709;53.334;6.534;2023-02-15T16:54:58;45.00;;;21.50;;
53801;SDS011;39709;53.334;6.534;2023-02-15T16:57:28;45.50;;;21.38;;
53801;SDS011;39709;53.334;6.534;2023-02-15T17:00:04;47.00;;;23.77;;
53801;SDS011;39709;53.334;6.534;2023-02-15T17:02:42;48.92;;;24.85;;
53801;SDS011;39709;53.334;6.534;2023-02-15T17:05:23;47.88;;;22.73;;
53801;SDS011;39709;53.334;6.534;2023-02-15T17:11:12;47.65;;;21.35;;
53801;SDS011;39709;53.334;6.534;2023-02-15T17:16:42;48.50;;;21.90;;
53801;SDS011;39709;53.334;6.534;2023-02-15T17:19:18;44.17;;;21.13;;
53801;SDS011;39709;53.334;6.534;2023-02-15T17:21:50;46.65;;;21.50;;
53801;SDS011;39709;53.334;6.534;2023-02-15T17:27:12;48.33;;;21.87;;
53801;SDS011;39709;53.334;6.534;2023-02-15T17:29:46;44.08;;;22.30;;
53801;SDS011;39709;53.334;6.534;2023-02-15T17:32:19;56.60;;;28.60;;
53801;SDS011;39709;53.334;6.534;2023-02-15T17:37:29;47.10;;;24.00;;
53801;SDS011;39709;53.334;6.534;2023-02-15T17:40:06;43.53;;;20.77;;
53801;SDS011;39709;53.334;6.534;2023-02-15T17:42:44;43.80;;;19.55;;
53801;SDS011;39709;53.334;6.534;2023-02-15T17:45:09;43.33;;;21.80;;
53801;SDS011;39709;53.334;6.534;2023-02-15T17:47:35;45.43;;;21.40;;
53801;SDS011;39709;53.334;6.534;2023-02-15T17:50:01;49.78;;;21.63;;
53801;SDS011;39709;53.334;6.534;2023-02-15T17:52:28;46.57;;;21.63;;
53801;SDS011;39709;53.334;6.534;2023-02-15T17:54:55;41.63;;;20.58;;
53801;SDS011;39709;53.334;6.534;2023-02-15T17:57:40;50.28;;;22.77;;
53801;SDS011;39709;53.334;6.534;2023-02-15T18:00:06;44.93;;;23.10;;
53801;SDS011;39709;53.334;6.534;2023-02-15T18:02:51;46.65;;;22.17;;
53801;SDS011;39709;53.334;6.534;2023-02-15T18:05:36;47.10;;;21.95;;
53801;SDS011;39709;53.334;6.534;2023-02-15T18:08:22;41.92;;;21.63;;
53801;SDS011;39709;53.334;6.534;2023-02-15T18:11:09;46.30;;;22.67;;
53801;SDS011;39709;53.334;6.534;2023-02-15T18:13:54;49.17;;;23.87;;
53801;SDS011;39709;53.334;6.534;2023-02-15T18:16:22;50.60;;;23.65;;
53801;SDS011;39709;53.334;6.534;2023-02-15T18:18:50;48.40;;;24.45;;
53801;SDS011;39709;53.334;6.534;2023-02-15T18:21:17;52.63;;;23.25;;
53801;SDS011;39709;53.334;6.534;2023-02-15T18:23:43;58.97;;;28.80;;
53801;SDS011;39709;53.334;6.534;2023-02-15T18:26:15;67.00;;;31.33;;
53801;SDS011;39709;53.334;6.534;2023-02-15T18:28:44;60.70;;;28.60;;
53801;SDS011;39709;53.334;6.534;2023-02-15T18:31:09;57.50;;;25.20;;